sensor_id;sensor_type;location;lat;lon;timestamp;pressure;altitude;pressure_sealevel;temperature;humidity
24558;BME280;12726;49.148;8.582;2022-09-19T00:02:10;100503.84;;;8.14;100.00
24558;BME280;12726;49.148;8.582;2022-09-19T00:04:56;100505.28;;;8.10;100.00
24558;BME280;12726;49.148;8.582;2022-09-19T00:07:41;100513.88;;;8.05;100.00
24558;BME280;12726;49.148;8.582;2022-09-19T00:10:26;100522.44;;;7.94;100.00
24558;BME280;12726;49.148;8.582;2022-09-19T00:13:12;100526.28;;;7.85;100.00
24558;BME280;12726;49.148;8.582;2022-09-19T00:15:58;100515.56;;;7.85;100.00
24558;BME280;12726;49.148;8.582;2022-09-19T00:18:43;100513.47;;;7.80;100.00
24558;BME280;12726;49.148;8.582;2022-09-19T00:21:31;100522.34;;;7.81;100.00
24558;BME280;12726;49.148;8.582;2022-09-19T00:24:18;100525.56;;;7.76;100.00
24558;BME280;12726;49.148;8.582;2022-09-19T00:27:23;100526.16;;;7.72;100.00
24558;BME280;12726;49.148;8.582;2022-09-19T00:30:10;100525.06;;;7.66;100.00
24558;BME280;12726;49.148;8.582;2022-09-19T00:32:57;100522.75;;;7.63;100.00
24558;BME280;12726;49.148;8.582;2022-09-19T00:35:43;100530.38;;;7.60;100.00
24558;BME280;12726;49.148;8.582;2022-09-19T00:38:29;100519.75;;;7.52;100.00
24558;BME280;12726;49.148;8.582;2022-09-19T00:41:16;100525.94;;;7.52;100.00
24558;BME280;12726;49.148;8.582;2022-09-19T00:44:04;100535.00;;;7.51;100.00
24558;BME280;12726;49.148;8.582;2022-09-19T00:46:55;100542.47;;;7.56;100.00
24558;BME280;12726;49.148;8.582;2022-09-19T00:49:45;100540.81;;;7.55;100.00
24558;BME280;12726;49.148;8.582;2022-09-19T00:52:37;100547.16;;;7.54;100.00
24558;BME280;12726;49.148;8.582;2022-09-19T00:55:24;100550.97;;;7.59;100.00
24558;BME280;12726;49.148;8.582;2022-09-19T00:58:14;100546.22;;;7.61;100.00
24558;BME280;12726;49.148;8.582;2022-09-19T01:01:01;100543.47;;;7.55;100.00
24558;BME280;12726;49.148;8.582;2022-09-19T01:03:46;100553.44;;;7.61;100.00
24558;BME280;12726;49.148;8.582;2022-09-19T01:06:44;100545.41;;;7.61;100.00
24558;BME280;12726;49.148;8.582;2022-09-19T01:09:41;100553.31;;;7.69;100.00
24558;BME280;12726;49.148;8.582;2022-09-19T01:12:36;100550.81;;;7.67;100.00
24558;BME280;12726;49.148;8.582;2022-09-19T01:15:33;100563.59;;;7.65;100.00
24558;BME280;12726;49.148;8.582;2022-09-19T01:18:26;100553.13;;;7.70;100.00
24558;BME280;12726;49.148;8.582;2022-09-19T01:21:18;100554.97;;;7.70;100.00
24558;BME280;12726;49.148;8.582;2022-09-19T01:28:10;100566.59;;;7.77;100.00
24558;BME280;12726;49.148;8.582;2022-09-19T01:31:06;100562.38;;;7.68;100.00
24558;BME280;12726;49.148;8.582;2022-09-19T01:34:04;100553.97;;;7.71;100.00
24558;BME280;12726;49.148;8.582;2022-09-19T01:36:55;100555.63;;;7.72;100.00
24558;BME280;12726;49.148;8.582;2022-09-19T01:39:49;100563.66;;;7.72;100.00
24558;BME280;12726;49.148;8.582;2022-09-19T01:42:35;100556.06;;;7.75;100.00
24558;BME280;12726;49.148;8.582;2022-09-19T01:45:24;100556.66;;;7.71;100.00
24558;BME280;12726;49.148;8.582;2022-09-19T01:48:15;100549.44;;;7.71;100.00
24558;BME280;12726;49.148;8.582;2022-09-19T01:51:13;100555.44;;;7.73;100.00
24558;BME280;12726;49.148;8.582;2022-09-19T01:54:13;100564.03;;;7.69;100.00
24558;BME280;12726;49.148;8.582;2022-09-19T01:57:09;100567.00;;;7.74;100.00
24558;BME280;12726;49.148;8.582;2022-09-19T02:00:05;100564.09;;;7.75;100.00
24558;BME280;12726;49.148;8.582;2022-09-19T02:03:05;100565.94;;;7.75;100.00
24558;BME280;12726;49.148;8.582;2022-09-19T02:05:54;100573.16;;;7.74;100.00
24558;BME280;12726;49.148;8.582;2022-09-19T02:08:48;100569.41;;;7.69;100.00
24558;BME280;12726;49.148;8.582;2022-09-19T02:11:36;100574.38;;;7.72;100.00
24558;BME280;12726;49.148;8.582;2022-09-19T02:14:23;100585.53;;;7.75;100.00
24558;BME280;12726;49.148;8.582;2022-09-19T02:17:14;100573.69;;;7.84;100.00
24558;BME280;12726;49.148;8.582;2022-09-19T02:20:07;100579.88;;;7.85;100.00
24558;BME280;12726;49.148;8.582;2022-09-19T02:22:56;100583.28;;;7.94;100.00
24558;BME280;12726;49.148;8.582;2022-09-19T02:25:45;100593.28;;;7.85;100.00
24558;BME280;12726;49.148;8.582;2022-09-19T02:28:35;100579.53;;;7.88;100.00
24558;BME280;12726;49.148;8.582;2022-09-19T02:31:23;100583.03;;;7.89;100.00
24558;BME280;12726;49.148;8.582;2022-09-19T02:34:12;100584.22;;;7.86;100.00
24558;BME280;12726;49.148;8.582;2022-09-19T02:37:04;100589.13;;;7.82;100.00
24558;BME280;12726;49.148;8.582;2022-09-19T02:39:58;100591.56;;;7.77;100.00
24558;BME280;12726;49.148;8.582;2022-09-19T02:42:48;100590.16;;;7.81;100.00
24558;BME280;12726;49.148;8.582;2022-09-19T02:45:38;100586.38;;;7.76;100.00
24558;BME280;12726;49.148;8.582;2022-09-19T02:48:30;100596.84;;;7.71;100.00
24558;BME280;12726;49.148;8.582;2022-09-19T02:51:21;100586.78;;;7.73;100.00
24558;BME280;12726;49.148;8.582;2022-09-19T02:54:15;100589.16;;;7.68;100.00
24558;BME280;12726;49.148;8.582;2022-09-19T02:57:07;100595.56;;;7.67;100.00
24558;BME280;12726;49.148;8.582;2022-09-19T02:59:56;100591.41;;;7.64;100.00
24558;BME280;12726;49.148;8.582;2022-09-19T03:02:47;100598.50;;;7.72;100.00
24558;BME280;12726;49.148;8.582;2022-09-19T03:05:38;100601.56;;;7.69;100.00
24558;BME280;12726;49.148;8.582;2022-09-19T03:08:24;100608.22;;;7.73;100.00
24558;BME280;12726;49.148;8.582;2022-09-19T03:11:13;100603.94;;;7.78;100.00
24558;BME280;12726;49.148;8.582;2022-09-19T03:14:01;100601.91;;;7.80;100.00
24558;BME280;12726;49.148;8.582;2022-09-19T03:16:49;100606.31;;;7.88;100.00
24558;BME280;12726;49.148;8.582;2022-09-19T03:19:40;100596.50;;;7.95;100.00
24558;BME280;12726;49.148;8.582;2022-09-19T03:22:25;100603.59;;;8.03;100.00
24558;BME280;12726;49.148;8.582;2022-09-19T03:25:12;100599.69;;;8.05;100.00
24558;BME280;12726;49.148;8.582;2022-09-19T03:27:59;100607.47;;;8.00;100.00
24558;BME280;12726;49.148;8.582;2022-09-19T03:30:46;100607.47;;;8.00;100.00
24558;BME280;12726;49.148;8.582;2022-09-19T03:33:31;100606.56;;;7.93;100.00
24558;BME280;12726;49.148;8.582;2022-09-19T03:36:17;100619.41;;;7.98;100.00
24558;BME280;12726;49.148;8.582;2022-09-19T03:39:03;100621.53;;;8.02;100.00
24558;BME280;12726;49.148;8.582;2022-09-19T03:41:48;100616.09;;;7.96;100.00
24558;BME280;12726;49.148;8.582;2022-09-19T03:44:35;100615.44;;;7.94;100.00
24558;BME280;12726;49.148;8.582;2022-09-19T03:47:20;100632.72;;;7.91;100.00
24558;BME280;12726;49.148;8.582;2022-09-19T03:50:06;100629.03;;;7.92;100.00
24558;BME280;12726;49.148;8.582;2022-09-19T03:52:52;100643.84;;;7.88;100.00
24558;BME280;12726;49.148;8.582;2022-09-19T03:55:37;100631.28;;;7.89;100.00
24558;BME280;12726;49.148;8.582;2022-09-19T03:58:26;100642.69;;;7.97;100.00
24558;BME280;12726;49.148;8.582;2022-09-19T04:01:14;100638.03;;;8.06;100.00
24558;BME280;12726;49.148;8.582;2022-09-19T04:03:59;100642.75;;;8.04;100.00
24558;BME280;12726;49.148;8.582;2022-09-19T04:06:45;100644.06;;;8.08;100.00
24558;BME280;12726;49.148;8.582;2022-09-19T04:09:31;100653.75;;;8.09;100.00
24558;BME280;12726;49.148;8.582;2022-09-19T04:12:18;100651.78;;;8.17;100.00
24558;BME280;12726;49.148;8.582;2022-09-19T04:15:04;100658.13;;;8.10;100.00
24558;BME280;12726;49.148;8.582;2022-09-19T04:17:51;100656.69;;;8.14;100.00
24558;BME280;12726;49.148;8.582;2022-09-19T04:20:36;100663.72;;;8.15;100.00
24558;BME280;12726;49.148;8.582;2022-09-19T04:23:22;100668.44;;;8.13;100.00
24558;BME280;12726;49.148;8.582;2022-09-19T04:26:09;100657.53;;;8.14;100.00
24558;BME280;12726;49.148;8.582;2022-09-19T04:28:54;100662.50;;;8.17;100.00
24558;BME280;12726;49.148;8.582;2022-09-19T04:31:40;100673.81;;;8.13;100.00
24558;BME280;12726;49.148;8.582;2022-09-19T04:34:27;100679.16;;;8.13;100.00
24558;BME280;12726;49.148;8.582;2022-09-19T04:37:12;100684.78;;;8.18;100.00
24558;BME280;12726;49.148;8.582;2022-09-19T04:39:59;100682.75;;;8.20;100.00
24558;BME280;12726;49.148;8.582;2022-09-19T04:42:44;100681.28;;;8.17;100.00
24558;BME280;12726;49.148;8.582;2022-09-19T04:45:30;100685.00;;;8.16;100.00
24558;BME280;12726;49.148;8.582;2022-09-19T04:48:15;100679.63;;;8.16;100.00
24558;BME280;12726;49.148;8.582;2022-09-19T04:51:03;100687.34;;;8.26;100.00
24558;BME280;12726;49.148;8.582;2022-09-19T04:53:49;100684.84;;;8.24;100.00
24558;BME280;12726;49.148;8.582;2022-09-19T04:56:34;100679.69;;;8.23;100.00
24558;BME280;12726;49.148;8.582;2022-09-19T04:59:20;100690.69;;;8.28;100.00
24558;BME280;12726;49.148;8.582;2022-09-19T05:02:05;100690.88;;;8.26;100.00
24558;BME280;12726;49.148;8.582;2022-09-19T05:04:50;100686.53;;;8.25;100.00
24558;BME280;12726;49.148;8.582;2022-09-19T05:07:37;100700.56;;;8.27;100.00
24558;BME280;12726;49.148;8.582;2022-09-19T05:10:23;100706.13;;;8.26;100.00
24558;BME280;12726;49.148;8.582;2022-09-19T05:13:10;100718.16;;;8.30;100.00
24558;BME280;12726;49.148;8.582;2022-09-19T05:15:55;100721.50;;;8.32;100.00
24558;BME280;12726;49.148;8.582;2022-09-19T05:18:41;100717.41;;;8.36;100.00
24558;BME280;12726;49.148;8.582;2022-09-19T05:21:26;100713.72;;;8.37;100.00
24558;BME280;12726;49.148;8.582;2022-09-19T05:24:13;100712.94;;;8.43;100.00
24558;BME280;12726;49.148;8.582;2022-09-19T05:26:58;100711.94;;;8.44;100.00
24558;BME280;12726;49.148;8.582;2022-09-19T05:29:45;100723.28;;;8.46;100.00
24558;BME280;12726;49.148;8.582;2022-09-19T05:32:30;100712.84;;;8.51;100.00
24558;BME280;12726;49.148;8.582;2022-09-19T05:35:17;100725.00;;;8.54;100.00
24558;BME280;12726;49.148;8.582;2022-09-19T05:38:04;100721.97;;;8.57;100.00
24558;BME280;12726;49.148;8.582;2022-09-19T05:40:53;100733.06;;;8.54;100.00
24558;BME280;12726;49.148;8.582;2022-09-19T05:43:38;100736.78;;;8.53;100.00
24558;BME280;12726;49.148;8.582;2022-09-19T05:46:23;100722.03;;;8.63;100.00
24558;BME280;12726;49.148;8.582;2022-09-19T05:49:09;100721.91;;;8.72;100.00
24558;BME280;12726;49.148;8.582;2022-09-19T05:51:54;100729.81;;;8.80;100.00
24558;BME280;12726;49.148;8.582;2022-09-19T05:54:40;100730.91;;;8.85;100.00
24558;BME280;12726;49.148;8.582;2022-09-19T05:57:25;100721.78;;;8.80;100.00
24558;BME280;12726;49.148;8.582;2022-09-19T06:00:12;100745.94;;;8.80;100.00
24558;BME280;12726;49.148;8.582;2022-09-19T06:02:59;100733.78;;;8.84;100.00
24558;BME280;12726;49.148;8.582;2022-09-19T06:05:47;100739.59;;;8.87;100.00
24558;BME280;12726;49.148;8.582;2022-09-19T06:08:33;100752.56;;;8.84;100.00
24558;BME280;12726;49.148;8.582;2022-09-19T06:11:18;100754.47;;;8.90;100.00
24558;BME280;12726;49.148;8.582;2022-09-19T06:14:05;100750.59;;;8.92;100.00
24558;BME280;12726;49.148;8.582;2022-09-19T06:16:59;100751.84;;;8.96;100.00
24558;BME280;12726;49.148;8.582;2022-09-19T06:19:44;100755.00;;;9.00;100.00
24558;BME280;12726;49.148;8.582;2022-09-19T06:22:30;100760.00;;;9.10;100.00
24558;BME280;12726;49.148;8.582;2022-09-19T06:25:15;100758.28;;;9.23;100.00
24558;BME280;12726;49.148;8.582;2022-09-19T06:28:03;100761.22;;;9.28;100.00
24558;BME280;12726;49.148;8.582;2022-09-19T06:30:50;100765.97;;;9.33;99.00
24558;BME280;12726;49.148;8.582;2022-09-19T06:33:36;100767.94;;;9.46;99.77
24558;BME280;12726;49.148;8.582;2022-09-19T06:36:21;100765.88;;;9.48;99.35
24558;BME280;12726;49.148;8.582;2022-09-19T06:39:06;100760.78;;;9.59;99.30
24558;BME280;12726;49.148;8.582;2022-09-19T06:41:52;100775.09;;;9.66;98.79
24558;BME280;12726;49.148;8.582;2022-09-19T06:44:37;100768.94;;;9.72;98.27
24558;BME280;12726;49.148;8.582;2022-09-19T06:47:24;100774.06;;;9.67;97.54
24558;BME280;12726;49.148;8.582;2022-09-19T06:50:09;100783.41;;;9.71;98.09
24558;BME280;12726;49.148;8.582;2022-09-19T06:52:58;100779.75;;;9.79;97.76
24558;BME280;12726;49.148;8.582;2022-09-19T06:55:43;100780.59;;;9.86;97.43
24558;BME280;12726;49.148;8.582;2022-09-19T06:58:29;100777.69;;;9.88;96.31
24558;BME280;12726;49.148;8.582;2022-09-19T07:01:14;100792.88;;;10.02;95.38
24558;BME280;12726;49.148;8.582;2022-09-19T07:04:02;100793.75;;;10.09;95.44
24558;BME280;12726;49.148;8.582;2022-09-19T07:06:47;100799.56;;;10.12;94.42
24558;BME280;12726;49.148;8.582;2022-09-19T07:09:33;100798.44;;;10.28;94.16
24558;BME280;12726;49.148;8.582;2022-09-19T07:12:18;100805.91;;;10.39;94.58
24558;BME280;12726;49.148;8.582;2022-09-19T07:15:04;100800.34;;;10.41;92.35
24558;BME280;12726;49.148;8.582;2022-09-19T07:17:49;100805.91;;;10.39;92.41
24558;BME280;12726;49.148;8.582;2022-09-19T07:20:39;100808.22;;;10.49;92.45
24558;BME280;12726;49.148;8.582;2022-09-19T07:23:24;100796.84;;;10.53;92.20
24558;BME280;12726;49.148;8.582;2022-09-19T07:26:10;100803.91;;;10.61;90.78
24558;BME280;12726;49.148;8.582;2022-09-19T07:28:55;100807.03;;;10.65;89.18
24558;BME280;12726;49.148;8.582;2022-09-19T07:31:40;100810.59;;;10.78;90.96
24558;BME280;12726;49.148;8.582;2022-09-19T07:34:26;100812.47;;;10.78;88.60
24558;BME280;12726;49.148;8.582;2022-09-19T07:37:13;100823.03;;;10.86;89.25
24558;BME280;12726;49.148;8.582;2022-09-19T07:39:58;100828.84;;;10.96;88.34
24558;BME280;12726;49.148;8.582;2022-09-19T07:42:43;100823.91;;;10.99;87.28
24558;BME280;12726;49.148;8.582;2022-09-19T07:45:29;100837.16;;;11.01;86.82
24558;BME280;12726;49.148;8.582;2022-09-19T07:48:16;100834.06;;;11.17;86.14
24558;BME280;12726;49.148;8.582;2022-09-19T07:51:01;100843.41;;;11.34;84.57
24558;BME280;12726;49.148;8.582;2022-09-19T07:53:49;100837.16;;;11.87;83.17
24558;BME280;12726;49.148;8.582;2022-09-19T07:56:34;100842.25;;;12.34;80.80
24558;BME280;12726;49.148;8.582;2022-09-19T07:59:20;100847.81;;;13.22;76.12
24558;BME280;12726;49.148;8.582;2022-09-19T08:02:06;100848.13;;;13.63;74.67
24558;BME280;12726;49.148;8.582;2022-09-19T08:04:53;100851.47;;;13.84;72.68
24558;BME280;12726;49.148;8.582;2022-09-19T08:07:38;100851.69;;;14.62;73.31
24558;BME280;12726;49.148;8.582;2022-09-19T08:10:25;100855.66;;;15.60;65.64
24558;BME280;12726;49.148;8.582;2022-09-19T08:13:12;100854.47;;;15.56;65.02
24558;BME280;12726;49.148;8.582;2022-09-19T08:15:57;100868.84;;;15.15;66.44
24558;BME280;12726;49.148;8.582;2022-09-19T08:18:43;100861.59;;;14.31;69.08
24558;BME280;12726;49.148;8.582;2022-09-19T08:21:30;100861.28;;;14.21;70.64
24558;BME280;12726;49.148;8.582;2022-09-19T08:24:15;100867.13;;;14.00;70.67
24558;BME280;12726;49.148;8.582;2022-09-19T08:27:02;100866.06;;;13.58;71.98
24558;BME280;12726;49.148;8.582;2022-09-19T08:29:47;100867.50;;;13.36;73.43
24558;BME280;12726;49.148;8.582;2022-09-19T08:32:33;100875.44;;;13.30;72.61
24558;BME280;12726;49.148;8.582;2022-09-19T08:35:19;100881.88;;;13.29;73.67
24558;BME280;12726;49.148;8.582;2022-09-19T08:38:07;100876.56;;;13.10;74.82
24558;BME280;12726;49.148;8.582;2022-09-19T08:41:04;100888.53;;;12.89;73.89
24558;BME280;12726;49.148;8.582;2022-09-19T08:43:57;100877.19;;;13.12;74.78
24558;BME280;12726;49.148;8.582;2022-09-19T08:46:49;100885.63;;;13.60;72.87
24558;BME280;12726;49.148;8.582;2022-09-19T08:49:38;100882.44;;;13.88;71.03
24558;BME280;12726;49.148;8.582;2022-09-19T08:52:32;100889.66;;;14.37;69.75
24558;BME280;12726;49.148;8.582;2022-09-19T08:55:22;100881.38;;;14.32;69.60
24558;BME280;12726;49.148;8.582;2022-09-19T08:58:13;100894.25;;;14.36;68.98
24558;BME280;12726;49.148;8.582;2022-09-19T09:01:04;100889.41;;;14.02;70.04
24558;BME280;12726;49.148;8.582;2022-09-19T09:04:06;100890.31;;;14.14;69.67
24558;BME280;12726;49.148;8.582;2022-09-19T09:07:19;100900.09;;;14.15;71.86
24558;BME280;12726;49.148;8.582;2022-09-19T09:10:17;100900.34;;;14.32;71.67
24558;BME280;12726;49.148;8.582;2022-09-19T09:13:17;100904.22;;;14.61;70.18
24558;BME280;12726;49.148;8.582;2022-09-19T09:16:15;100907.97;;;14.60;67.99
24558;BME280;12726;49.148;8.582;2022-09-19T09:19:15;100899.63;;;14.43;68.20
24558;BME280;12726;49.148;8.582;2022-09-19T09:22:12;100907.94;;;14.23;68.45
24558;BME280;12726;49.148;8.582;2022-09-19T09:25:10;100910.78;;;14.28;69.67
24558;BME280;12726;49.148;8.582;2022-09-19T09:28:00;100902.28;;;14.25;68.71
24558;BME280;12726;49.148;8.582;2022-09-19T09:30:50;100910.09;;;14.39;69.55
24558;BME280;12726;49.148;8.582;2022-09-19T09:33:43;100902.19;;;15.04;67.35
24558;BME280;12726;49.148;8.582;2022-09-19T09:36:34;100902.06;;;16.29;63.27
24558;BME280;12726;49.148;8.582;2022-09-19T09:39:24;100901.34;;;16.22;60.73
24558;BME280;12726;49.148;8.582;2022-09-19T09:42:12;100900.88;;;16.48;62.09
24558;BME280;12726;49.148;8.582;2022-09-19T09:45:01;100890.81;;;16.37;61.85
24558;BME280;12726;49.148;8.582;2022-09-19T09:47:55;100894.41;;;15.91;62.26
24558;BME280;12726;49.148;8.582;2022-09-19T09:50:53;100898.53;;;15.93;62.80
24558;BME280;12726;49.148;8.582;2022-09-19T09:53:57;100896.03;;;15.92;63.50
24558;BME280;12726;49.148;8.582;2022-09-19T09:56:49;100889.06;;;15.73;65.59
24558;BME280;12726;49.148;8.582;2022-09-19T09:59:44;100891.66;;;15.56;66.00
24558;BME280;12726;49.148;8.582;2022-09-19T10:02:55;100885.41;;;15.25;65.34
24558;BME280;12726;49.148;8.582;2022-09-19T10:06:07;100893.69;;;15.31;66.16
24558;BME280;12726;49.148;8.582;2022-09-19T10:08:58;100889.72;;;15.15;67.63
24558;BME280;12726;49.148;8.582;2022-09-19T10:11:48;100880.44;;;14.93;67.75
24558;BME280;12726;49.148;8.582;2022-09-19T10:14:38;100886.59;;;15.00;67.93
24558;BME280;12726;49.148;8.582;2022-09-19T10:17:24;100882.38;;;15.45;68.25
24558;BME280;12726;49.148;8.582;2022-09-19T10:20:17;100883.06;;;15.82;65.53
24558;BME280;12726;49.148;8.582;2022-09-19T10:23:11;100885.97;;;15.57;66.05
24558;BME280;12726;49.148;8.582;2022-09-19T10:25:59;100888.13;;;16.14;64.00
24558;BME280;12726;49.148;8.582;2022-09-19T10:28:47;100883.88;;;16.41;62.48
24558;BME280;12726;49.148;8.582;2022-09-19T10:31:37;100892.47;;;16.38;61.93
24558;BME280;12726;49.148;8.582;2022-09-19T10:34:26;100893.19;;;16.22;62.76
24558;BME280;12726;49.148;8.582;2022-09-19T10:37:14;100887.41;;;15.60;63.67
24558;BME280;12726;49.148;8.582;2022-09-19T10:40:03;100887.41;;;15.30;65.11
24558;BME280;12726;49.148;8.582;2022-09-19T10:42:48;100870.22;;;15.36;65.48
24558;BME280;12726;49.148;8.582;2022-09-19T10:45:35;100882.28;;;15.52;65.94
24558;BME280;12726;49.148;8.582;2022-09-19T10:48:25;100887.06;;;15.26;67.78
24558;BME280;12726;49.148;8.582;2022-09-19T10:51:12;100886.56;;;15.18;66.46
24558;BME280;12726;49.148;8.582;2022-09-19T10:54:00;100889.06;;;14.89;68.91
24558;BME280;12726;49.148;8.582;2022-09-19T10:56:56;100890.44;;;14.62;70.61
24558;BME280;12726;49.148;8.582;2022-09-19T10:59:43;100884.53;;;14.29;71.43
24558;BME280;12726;49.148;8.582;2022-09-19T11:02:30;100890.84;;;14.04;72.67
24558;BME280;12726;49.148;8.582;2022-09-19T11:05:23;100891.94;;;13.97;72.70
24558;BME280;12726;49.148;8.582;2022-09-19T11:08:21;100887.44;;;13.91;73.26
24558;BME280;12726;49.148;8.582;2022-09-19T11:11:20;100895.50;;;13.97;74.46
24558;BME280;12726;49.148;8.582;2022-09-19T11:14:18;100887.31;;;14.04;73.43
24558;BME280;12726;49.148;8.582;2022-09-19T11:17:20;100887.72;;;14.44;72.66
24558;BME280;12726;49.148;8.582;2022-09-19T11:20:18;100884.56;;;14.65;71.78
24558;BME280;12726;49.148;8.582;2022-09-19T11:23:23;100880.25;;;14.76;71.11
24558;BME280;12726;49.148;8.582;2022-09-19T11:26:22;100876.31;;;15.73;68.08
24558;BME280;12726;49.148;8.582;2022-09-19T11:29:33;100870.84;;;16.43;64.37
24558;BME280;12726;49.148;8.582;2022-09-19T11:32:40;100866.66;;;16.75;62.84
24558;BME280;12726;49.148;8.582;2022-09-19T11:35:31;100870.97;;;17.16;62.63
24558;BME280;12726;49.148;8.582;2022-09-19T11:38:29;100860.47;;;17.53;60.88
24558;BME280;12726;49.148;8.582;2022-09-19T11:41:28;100865.94;;;17.70;59.30
24558;BME280;12726;49.148;8.582;2022-09-19T11:44:30;100858.63;;;17.42;59.36
24558;BME280;12726;49.148;8.582;2022-09-19T11:50:47;100865.06;;;18.42;58.65
24558;BME280;12726;49.148;8.582;2022-09-19T11:53:54;100854.72;;;18.22;56.83
24558;BME280;12726;49.148;8.582;2022-09-19T11:56:53;100847.31;;;18.00;57.53
24558;BME280;12726;49.148;8.582;2022-09-19T11:59:58;100850.41;;;17.54;57.49
24558;BME280;12726;49.148;8.582;2022-09-19T12:03:18;100855.84;;;17.54;58.79
24558;BME280;12726;49.148;8.582;2022-09-19T12:06:14;100848.09;;;17.46;58.56
24558;BME280;12726;49.148;8.582;2022-09-19T12:09:11;100838.50;;;17.43;60.65
24558;BME280;12726;49.148;8.582;2022-09-19T12:12:02;100842.97;;;17.33;58.65
24558;BME280;12726;49.148;8.582;2022-09-19T12:14:52;100844.25;;;17.13;60.56
24558;BME280;12726;49.148;8.582;2022-09-19T12:17:40;100843.56;;;16.90;62.70
24558;BME280;12726;49.148;8.582;2022-09-19T12:20:32;100837.38;;;16.66;64.74
24558;BME280;12726;49.148;8.582;2022-09-19T12:23:21;100853.38;;;16.27;68.13
24558;BME280;12726;49.148;8.582;2022-09-19T12:26:29;100845.28;;;15.69;70.62
24558;BME280;12726;49.148;8.582;2022-09-19T12:29:22;100855.97;;;15.41;74.91
24558;BME280;12726;49.148;8.582;2022-09-19T12:32:16;100846.53;;;15.02;76.77
24558;BME280;12726;49.148;8.582;2022-09-19T12:35:12;100836.16;;;14.69;77.98
24558;BME280;12726;49.148;8.582;2022-09-19T12:38:16;100824.38;;;14.45;79.77
24558;BME280;12726;49.148;8.582;2022-09-19T12:41:11;100822.09;;;14.60;80.62
24558;BME280;12726;49.148;8.582;2022-09-19T12:44:03;100832.34;;;15.29;80.80
24558;BME280;12726;49.148;8.582;2022-09-19T12:46:55;100829.44;;;16.24;77.35
24558;BME280;12726;49.148;8.582;2022-09-19T12:49:52;100822.91;;;16.77;71.52
24558;BME280;12726;49.148;8.582;2022-09-19T12:52:42;100818.28;;;16.37;73.20
24558;BME280;12726;49.148;8.582;2022-09-19T12:55:38;100816.59;;;15.96;73.28
24558;BME280;12726;49.148;8.582;2022-09-19T12:58:25;100825.56;;;16.09;74.67
24558;BME280;12726;49.148;8.582;2022-09-19T13:01:17;100810.22;;;16.54;70.99
24558;BME280;12726;49.148;8.582;2022-09-19T13:04:16;100814.66;;;17.17;73.54
24558;BME280;12726;49.148;8.582;2022-09-19T13:07:10;100809.31;;;17.39;70.91
24558;BME280;12726;49.148;8.582;2022-09-19T13:10:03;100803.53;;;17.52;69.96
24558;BME280;12726;49.148;8.582;2022-09-19T13:12:55;100811.22;;;17.38;68.76
24558;BME280;12726;49.148;8.582;2022-09-19T13:15:45;100814.63;;;17.00;66.00
24558;BME280;12726;49.148;8.582;2022-09-19T13:18:32;100815.47;;;16.72;67.83
24558;BME280;12726;49.148;8.582;2022-09-19T13:21:37;100815.97;;;16.58;68.57
24558;BME280;12726;49.148;8.582;2022-09-19T13:24:54;100817.03;;;16.68;69.15
24558;BME280;12726;49.148;8.582;2022-09-19T13:27:43;100815.47;;;16.72;69.78
24558;BME280;12726;49.148;8.582;2022-09-19T13:30:51;100820.69;;;16.74;64.13
24558;BME280;12726;49.148;8.582;2022-09-19T13:33:45;100810.53;;;16.58;64.77
24558;BME280;12726;49.148;8.582;2022-09-19T13:36:40;100814.59;;;16.55;67.16
24558;BME280;12726;49.148;8.582;2022-09-19T13:39:51;100813.09;;;16.36;65.74
24558;BME280;12726;49.148;8.582;2022-09-19T13:42:43;100807.56;;;16.31;66.17
24558;BME280;12726;49.148;8.582;2022-09-19T13:45:36;100815.81;;;16.36;66.88
24558;BME280;12726;49.148;8.582;2022-09-19T13:48:32;100811.50;;;16.63;64.59
24558;BME280;12726;49.148;8.582;2022-09-19T13:51:27;100813.53;;;16.84;65.32
24558;BME280;12726;49.148;8.582;2022-09-19T13:54:31;100808.28;;;16.95;64.73
24558;BME280;12726;49.148;8.582;2022-09-19T13:57:21;100788.34;;;17.06;64.32
24558;BME280;12726;49.148;8.582;2022-09-19T14:00:25;100802.22;;;17.21;63.73
24558;BME280;12726;49.148;8.582;2022-09-19T14:03:24;100810.88;;;17.18;62.95
24558;BME280;12726;49.148;8.582;2022-09-19T14:06:17;100813.00;;;17.16;64.71
24558;BME280;12726;49.148;8.582;2022-09-19T14:09:14;100818.56;;;16.76;60.11
24558;BME280;12726;49.148;8.582;2022-09-19T14:15:45;100821.91;;;16.55;59.68
24558;BME280;12726;49.148;8.582;2022-09-19T14:18:46;100825.38;;;16.38;61.55
24558;BME280;12726;49.148;8.582;2022-09-19T14:21:55;100820.34;;;16.19;63.32
24558;BME280;12726;49.148;8.582;2022-09-19T14:24:49;100813.50;;;15.93;61.93
24558;BME280;12726;49.148;8.582;2022-09-19T14:27:51;100806.09;;;15.65;64.57
24558;BME280;12726;49.148;8.582;2022-09-19T14:31:02;100812.06;;;15.44;67.34
24558;BME280;12726;49.148;8.582;2022-09-19T14:34:18;100813.66;;;15.10;67.71
24558;BME280;12726;49.148;8.582;2022-09-19T14:37:25;100823.53;;;14.63;68.83
24558;BME280;12726;49.148;8.582;2022-09-19T14:40:21;100841.31;;;14.40;72.69
24558;BME280;12726;49.148;8.582;2022-09-19T14:43:34;100859.25;;;14.17;77.09
24558;BME280;12726;49.148;8.582;2022-09-19T14:46:32;100864.84;;;13.79;77.49
24558;BME280;12726;49.148;8.582;2022-09-19T14:49:22;100869.88;;;13.50;79.34
24558;BME280;12726;49.148;8.582;2022-09-19T14:52:12;100869.59;;;13.33;82.16
24558;BME280;12726;49.148;8.582;2022-09-19T14:55:04;100866.38;;;13.12;82.64
24558;BME280;12726;49.148;8.582;2022-09-19T14:57:53;100846.56;;;12.86;82.06
24558;BME280;12726;49.148;8.582;2022-09-19T15:00:41;100852.66;;;12.75;83.53
24558;BME280;12726;49.148;8.582;2022-09-19T15:03:27;100852.56;;;12.57;83.19
24558;BME280;12726;49.148;8.582;2022-09-19T15:06:16;100833.44;;;12.52;85.41